This is the latest recevied weather packets stored in our database for station/object KG5VSR. If no packets are shown the sender has not sent any weather packets the latest 1 day(s).
| Time | Temp. | Humidity | Pressure | Rain* | Wind** | Luminosity | Snow |
|---|---|---|---|---|---|---|---|
| 1778005278 | 28.33° C | 74% | 1005.7 hPa | 0 mm | 2.24 m/s, 109° | 524 W/m² | - |
| 1778003475 | 28.89° C | 73% | 1006 hPa | 0 mm | 1.34 m/s, 134° | 337 W/m² | - |
| 1778001674 | 28.33° C | 74% | 1005.9 hPa | 0 mm | 2.24 m/s, 195° | 488 W/m² | - |
| 1777999874 | 26.67° C | 77% | 1005.9 hPa | 0 mm | 0.89 m/s, 180° | 501 W/m² | - |
| 1777998069 | 27.22° C | 75% | 1005.8 hPa | 0 mm | 1.34 m/s, 123° | 639 W/m² | - |
| 1777996268 | 25.56° C | 79% | 1005.6 hPa | 0 mm | 0.89 m/s, 215° | 419 W/m² | - |
| 1777994464 | 25.56° C | 80% | 1006 hPa | 0 mm | 1.34 m/s, 200° | 529 W/m² | - |
| 1777992662 | 24.44° C | 83% | 1005.9 hPa | 0 mm | 1.79 m/s, 175° | 215 W/m² | - |
| 1777990856 | 23.89° C | 85% | 1005.7 hPa | 0 mm | 1.79 m/s, 182° | 220 W/m² | - |
| 1777989054 | 22.78° C | 89% | 1005.8 hPa | 0 mm | 0.45 m/s, 187° | 72 W/m² | - |
| 1777987252 | 22.22° C | 89% | 1005.8 hPa | 0 mm | 1.34 m/s, 198° | 58 W/m² | - |
| 1777985453 | 22.22° C | 90% | 1005.4 hPa | 0 mm | 0.45 m/s, 184° | 45 W/m² | - |
| 1777983650 | 21.67° C | 90% | 1004.7 hPa | 0 mm | 4.02 m/s, 171° | 20 W/m² | - |
| 1777981845 | 21.67° C | 90% | 1004.9 hPa | 0 mm | 0.45 m/s, 198° | 2 W/m² | - |
| 1777980044 | 21.67° C | 90% | 1004.6 hPa | 0 mm | 1.34 m/s, 187° | 0 W/m² | - |
| 1777978243 | 21.67° C | 90% | 1004.6 hPa | 0 mm | 1.79 m/s, 180° | 0 W/m² | - |
| 1777976439 | 21.67° C | 89% | 1004.6 hPa | 0 mm | 0.89 m/s, 158° | 0 W/m² | - |
| 1777974637 | 22.22° C | 88% | 1004.9 hPa | 0 mm | 1.79 m/s, 189° | 0 W/m² | - |
| 1777972837 | 21.67° C | 89% | 1005.1 hPa | 0 mm | 1.34 m/s, 169° | 0 W/m² | - |
| 1777971033 | 21.67° C | 89% | 1005.2 hPa | 0 mm | 1.79 m/s, 188° | 0 W/m² | - |
| 1777969233 | 21.67° C | 89% | 1005.5 hPa | 0 mm | 2.24 m/s, 173° | 0 W/m² | - |
| 1777967430 | 21.67° C | 89% | 1005.6 hPa | 0 mm | 1.34 m/s, 276° | 0 W/m² | - |
| 1777965629 | 21.67° C | 87% | 1006.1 hPa | 0 mm | 2.24 m/s, 182° | 0 W/m² | - |
* Rain latest hour (hover to see other rain measurements)
** Current wind speed in m/s (hover to see current wind gust speed)